sensor_id;sensor_type;location;lat;lon;timestamp;pressure;altitude;pressure_sealevel;temperature;humidity
19811;BME280;10065;49.632;8.346;2023-03-01T00:01:14;101671.34;;;4.22;48.55
19811;BME280;10065;49.632;8.346;2023-03-01T00:03:42;101661.97;;;4.16;48.52
19811;BME280;10065;49.632;8.346;2023-03-01T00:06:11;101676.03;;;4.15;48.53
19811;BME280;10065;49.632;8.346;2023-03-01T00:08:39;101677.91;;;4.13;48.84
19811;BME280;10065;49.632;8.346;2023-03-01T00:11:09;101670.38;;;4.05;48.96
19811;BME280;10065;49.632;8.346;2023-03-01T00:13:37;101669.25;;;4.11;48.89
19811;BME280;10065;49.632;8.346;2023-03-01T00:16:07;101666.56;;;4.12;48.94
19811;BME280;10065;49.632;8.346;2023-03-01T00:18:35;101668.53;;;4.07;48.94
19811;BME280;10065;49.632;8.346;2023-03-01T00:21:03;101655.41;;;4.07;49.01
19811;BME280;10065;49.632;8.346;2023-03-01T00:23:33;101665.13;;;4.05;49.03
19811;BME280;10065;49.632;8.346;2023-03-01T00:26:01;101668.72;;;4.04;49.04
19811;BME280;10065;49.632;8.346;2023-03-01T00:28:29;101674.09;;;4.01;49.12
19811;BME280;10065;49.632;8.346;2023-03-01T00:31:02;101672.25;;;4.03;49.16
19811;BME280;10065;49.632;8.346;2023-03-01T00:33:30;101671.47;;;4.01;49.21
19811;BME280;10065;49.632;8.346;2023-03-01T00:35:58;101668.84;;;4.01;49.20
19811;BME280;10065;49.632;8.346;2023-03-01T00:38:26;101662.03;;;3.97;49.28
19811;BME280;10065;49.632;8.346;2023-03-01T00:41:02;101664.13;;;3.91;49.31
19811;BME280;10065;49.632;8.346;2023-03-01T00:43:30;101659.75;;;3.91;49.40
19811;BME280;10065;49.632;8.346;2023-03-01T00:46:03;101668.69;;;3.87;49.67
19811;BME280;10065;49.632;8.346;2023-03-01T00:48:31;101667.16;;;3.83;49.74
19811;BME280;10065;49.632;8.346;2023-03-01T00:51:04;101670.56;;;3.85;49.92
19811;BME280;10065;49.632;8.346;2023-03-01T00:53:33;101674.94;;;3.85;49.70
19811;BME280;10065;49.632;8.346;2023-03-01T00:56:03;101673.94;;;3.87;49.82
19811;BME280;10065;49.632;8.346;2023-03-01T00:58:31;101671.31;;;3.87;49.71
19811;BME280;10065;49.632;8.346;2023-03-01T01:00:59;101666.91;;;3.88;49.70
19811;BME280;10065;49.632;8.346;2023-03-01T01:03:27;101662.81;;;3.82;50.04
19811;BME280;10065;49.632;8.346;2023-03-01T01:05:54;101656.97;;;3.77;50.19
19811;BME280;10065;49.632;8.346;2023-03-01T01:08:22;101656.13;;;3.76;50.18
19811;BME280;10065;49.632;8.346;2023-03-01T01:10:50;101647.41;;;3.76;50.08
19811;BME280;10065;49.632;8.346;2023-03-01T01:13:19;101639.13;;;3.66;50.55
19811;BME280;10065;49.632;8.346;2023-03-01T01:15:46;101636.56;;;3.65;50.38
19811;BME280;10065;49.632;8.346;2023-03-01T01:18:14;101634.19;;;3.60;50.61
19811;BME280;10065;49.632;8.346;2023-03-01T01:20:42;101631.84;;;3.54;50.75
19811;BME280;10065;49.632;8.346;2023-03-01T01:23:09;101624.69;;;3.58;50.91
19811;BME280;10065;49.632;8.346;2023-03-01T01:25:37;101621.16;;;3.59;50.52
19811;BME280;10065;49.632;8.346;2023-03-01T01:28:05;101623.00;;;3.57;50.93
19811;BME280;10065;49.632;8.346;2023-03-01T01:30:34;101629.00;;;3.59;50.78
19811;BME280;10065;49.632;8.346;2023-03-01T01:33:01;101616.81;;;3.58;50.69
19811;BME280;10065;49.632;8.346;2023-03-01T01:35:29;101622.00;;;3.59;50.56
19811;BME280;10065;49.632;8.346;2023-03-01T01:37:57;101606.00;;;3.64;50.39
19811;BME280;10065;49.632;8.346;2023-03-01T01:40:25;101602.00;;;3.57;50.93
19811;BME280;10065;49.632;8.346;2023-03-01T01:42:52;101600.84;;;3.62;50.67
19811;BME280;10065;49.632;8.346;2023-03-01T01:45:32;101597.75;;;3.54;50.84
19811;BME280;10065;49.632;8.346;2023-03-01T01:48:04;101589.19;;;3.51;50.89
19811;BME280;10065;49.632;8.346;2023-03-01T01:50:33;101586.47;;;3.52;50.96
19811;BME280;10065;49.632;8.346;2023-03-01T01:53:07;101590.25;;;3.47;51.16
19811;BME280;10065;49.632;8.346;2023-03-01T01:55:39;101585.16;;;3.44;51.07
19811;BME280;10065;49.632;8.346;2023-03-01T01:58:09;101588.34;;;3.50;50.99
19811;BME280;10065;49.632;8.346;2023-03-01T02:00:38;101585.03;;;3.47;51.17
19811;BME280;10065;49.632;8.346;2023-03-01T02:03:10;101585.88;;;3.47;51.02
19811;BME280;10065;49.632;8.346;2023-03-01T02:05:43;101582.53;;;3.44;51.26
19811;BME280;10065;49.632;8.346;2023-03-01T02:08:21;101587.72;;;3.45;51.22
19811;BME280;10065;49.632;8.346;2023-03-01T02:10:52;101579.63;;;3.50;50.95
19811;BME280;10065;49.632;8.346;2023-03-01T02:13:20;101578.84;;;3.48;51.11
19811;BME280;10065;49.632;8.346;2023-03-01T02:15:49;101575.31;;;3.49;50.98
19811;BME280;10065;49.632;8.346;2023-03-01T02:18:20;101569.16;;;3.50;50.95
19811;BME280;10065;49.632;8.346;2023-03-01T02:21:01;101562.50;;;3.43;51.16
19811;BME280;10065;49.632;8.346;2023-03-01T02:23:33;101565.28;;;3.39;51.28
19811;BME280;10065;49.632;8.346;2023-03-01T02:26:05;101563.56;;;3.38;51.46
19811;BME280;10065;49.632;8.346;2023-03-01T02:28:37;101567.81;;;3.41;51.39
19811;BME280;10065;49.632;8.346;2023-03-01T02:31:08;101567.50;;;3.47;51.43
19811;BME280;10065;49.632;8.346;2023-03-01T02:33:54;101563.13;;;3.48;51.40
19811;BME280;10065;49.632;8.346;2023-03-01T02:36:25;101563.81;;;3.51;51.41
19811;BME280;10065;49.632;8.346;2023-03-01T02:38:57;101560.19;;;3.54;51.65
19811;BME280;10065;49.632;8.346;2023-03-01T02:41:28;101556.31;;;3.61;51.40
19811;BME280;10065;49.632;8.346;2023-03-01T02:43:59;101552.31;;;3.54;51.50
19811;BME280;10065;49.632;8.346;2023-03-01T02:46:27;101550.78;;;3.50;51.54
19811;BME280;10065;49.632;8.346;2023-03-01T02:48:57;101552.63;;;3.48;51.80
19811;BME280;10065;49.632;8.346;2023-03-01T02:51:34;101541.44;;;3.44;51.86
19811;BME280;10065;49.632;8.346;2023-03-01T02:54:11;101541.69;;;3.39;51.97
19811;BME280;10065;49.632;8.346;2023-03-01T02:56:41;101547.78;;;3.40;52.14
19811;BME280;10065;49.632;8.346;2023-03-01T02:59:10;101542.53;;;3.40;52.00
19811;BME280;10065;49.632;8.346;2023-03-01T03:01:39;101539.72;;;3.43;51.89
19811;BME280;10065;49.632;8.346;2023-03-01T03:04:09;101534.41;;;3.45;51.88
19811;BME280;10065;49.632;8.346;2023-03-01T03:06:37;101533.66;;;3.43;52.09
19811;BME280;10065;49.632;8.346;2023-03-01T03:09:05;101522.41;;;3.40;52.06
19811;BME280;10065;49.632;8.346;2023-03-01T03:11:34;101516.75;;;3.31;52.44
19811;BME280;10065;49.632;8.346;2023-03-01T03:14:03;101521.03;;;3.33;52.21
19811;BME280;10065;49.632;8.346;2023-03-01T03:16:32;101520.91;;;3.35;52.31
19811;BME280;10065;49.632;8.346;2023-03-01T03:19:00;101512.97;;;3.36;52.17
19811;BME280;10065;49.632;8.346;2023-03-01T03:21:31;101512.06;;;3.37;52.27
19811;BME280;10065;49.632;8.346;2023-03-01T03:23:59;101512.06;;;3.37;52.22
19811;BME280;10065;49.632;8.346;2023-03-01T03:26:27;101502.50;;;3.36;52.39
19811;BME280;10065;49.632;8.346;2023-03-01T03:28:55;101501.50;;;3.39;52.43
19811;BME280;10065;49.632;8.346;2023-03-01T03:31:23;101503.88;;;3.44;52.22
19811;BME280;10065;49.632;8.346;2023-03-01T03:33:52;101504.34;;;3.52;51.98
19811;BME280;10065;49.632;8.346;2023-03-01T03:36:22;101502.72;;;3.49;52.11
19811;BME280;10065;49.632;8.346;2023-03-01T03:38:50;101498.00;;;3.56;51.78
19811;BME280;10065;49.632;8.346;2023-03-01T03:41:18;101489.94;;;3.60;51.65
19811;BME280;10065;49.632;8.346;2023-03-01T03:43:46;101494.31;;;3.60;51.73
19811;BME280;10065;49.632;8.346;2023-03-01T03:46:15;101488.44;;;3.55;51.87
19811;BME280;10065;49.632;8.346;2023-03-01T03:48:44;101482.44;;;3.53;51.87
19811;BME280;10065;49.632;8.346;2023-03-01T03:51:15;101482.53;;;3.51;51.83
19811;BME280;10065;49.632;8.346;2023-03-01T03:53:44;101482.81;;;3.45;52.12
19811;BME280;10065;49.632;8.346;2023-03-01T03:56:12;101484.44;;;3.48;52.05
19811;BME280;10065;49.632;8.346;2023-03-01T03:58:40;101479.81;;;3.35;52.45
19811;BME280;10065;49.632;8.346;2023-03-01T04:01:07;101471.03;;;3.36;52.46
19811;BME280;10065;49.632;8.346;2023-03-01T04:03:35;101475.50;;;3.34;52.53
19811;BME280;10065;49.632;8.346;2023-03-01T04:06:03;101474.56;;;3.35;52.49
19811;BME280;10065;49.632;8.346;2023-03-01T04:08:33;101479.81;;;3.35;52.52
19811;BME280;10065;49.632;8.346;2023-03-01T04:11:03;101474.88;;;3.29;52.67
19811;BME280;10065;49.632;8.346;2023-03-01T04:13:45;101479.75;;;3.20;52.96
19811;BME280;10065;49.632;8.346;2023-03-01T04:16:13;101473.66;;;3.19;53.09
19811;BME280;10065;49.632;8.346;2023-03-01T04:18:40;101471.09;;;3.18;53.35
19811;BME280;10065;49.632;8.346;2023-03-01T04:21:08;101484.31;;;3.16;53.33
19811;BME280;10065;49.632;8.346;2023-03-01T04:23:38;101478.66;;;3.07;53.81
19811;BME280;10065;49.632;8.346;2023-03-01T04:26:07;101478.50;;;3.10;53.61
19811;BME280;10065;49.632;8.346;2023-03-01T04:28:37;101481.59;;;3.18;53.41
19811;BME280;10065;49.632;8.346;2023-03-01T04:31:08;101484.78;;;3.24;53.40
19811;BME280;10065;49.632;8.346;2023-03-01T04:33:40;101482.16;;;3.24;53.64
19811;BME280;10065;49.632;8.346;2023-03-01T04:36:09;101473.44;;;3.24;53.28
19811;BME280;10065;49.632;8.346;2023-03-01T04:38:39;101485.75;;;3.22;53.39
19811;BME280;10065;49.632;8.346;2023-03-01T04:41:09;101481.13;;;3.27;53.25
19811;BME280;10065;49.632;8.346;2023-03-01T04:43:37;101482.16;;;3.24;55.35
19811;BME280;10065;49.632;8.346;2023-03-01T04:46:07;101485.06;;;3.18;54.12
19811;BME280;10065;49.632;8.346;2023-03-01T04:48:36;101487.59;;;3.20;53.78
19811;BME280;10065;49.632;8.346;2023-03-01T04:51:04;101478.59;;;3.25;53.49
19811;BME280;10065;49.632;8.346;2023-03-01T04:53:33;101476.97;;;3.23;53.55
19811;BME280;10065;49.632;8.346;2023-03-01T04:56:04;101485.97;;;3.34;53.22
19811;BME280;10065;49.632;8.346;2023-03-01T04:58:32;101482.38;;;3.20;53.48
19811;BME280;10065;49.632;8.346;2023-03-01T05:01:00;101478.13;;;3.17;53.46
19811;BME280;10065;49.632;8.346;2023-03-01T05:03:28;101482.28;;;3.21;53.61
19811;BME280;10065;49.632;8.346;2023-03-01T05:05:58;101479.22;;;3.30;53.34
19811;BME280;10065;49.632;8.346;2023-03-01T05:08:26;101483.34;;;3.34;53.31
19811;BME280;10065;49.632;8.346;2023-03-01T05:10:54;101487.59;;;3.37;53.13
19811;BME280;10065;49.632;8.346;2023-03-01T05:13:23;101477.97;;;3.37;53.18
19811;BME280;10065;49.632;8.346;2023-03-01T05:15:54;101481.22;;;3.43;53.05
19811;BME280;10065;49.632;8.346;2023-03-01T05:18:22;101477.13;;;3.37;53.15
19811;BME280;10065;49.632;8.346;2023-03-01T05:20:52;101471.56;;;3.43;53.07
19811;BME280;10065;49.632;8.346;2023-03-01T05:23:22;101477.03;;;3.56;52.82
19811;BME280;10065;49.632;8.346;2023-03-01T05:25:50;101471.09;;;3.52;53.09
19811;BME280;10065;49.632;8.346;2023-03-01T05:28:19;101470.41;;;3.49;53.21
19811;BME280;10065;49.632;8.346;2023-03-01T05:30:48;101477.03;;;3.56;53.15
19811;BME280;10065;49.632;8.346;2023-03-01T05:33:18;101472.13;;;3.50;53.03
19811;BME280;10065;49.632;8.346;2023-03-01T05:35:49;101482.59;;;3.50;53.21
19811;BME280;10065;49.632;8.346;2023-03-01T05:38:17;101475.88;;;3.44;53.20
19811;BME280;10065;49.632;8.346;2023-03-01T05:40:47;101475.66;;;3.49;53.13
19811;BME280;10065;49.632;8.346;2023-03-01T05:43:16;101474.88;;;3.47;53.10
19811;BME280;10065;49.632;8.346;2023-03-01T05:45:44;101478.75;;;3.39;53.45
19811;BME280;10065;49.632;8.346;2023-03-01T05:48:14;101461.56;;;3.34;53.60
19811;BME280;10065;49.632;8.346;2023-03-01T05:50:43;101472.59;;;3.40;53.56
19811;BME280;10065;49.632;8.346;2023-03-01T05:53:14;101467.34;;;3.40;53.30
19811;BME280;10065;49.632;8.346;2023-03-01T05:55:43;101473.56;;;3.38;53.66
19811;BME280;10065;49.632;8.346;2023-03-01T05:58:14;101465.50;;;3.43;53.37
19811;BME280;10065;49.632;8.346;2023-03-01T06:00:44;101470.47;;;3.47;53.15
19811;BME280;10065;49.632;8.346;2023-03-01T06:03:14;101471.56;;;3.43;53.14
19811;BME280;10065;49.632;8.346;2023-03-01T06:05:43;101469.72;;;3.45;53.23
19811;BME280;10065;49.632;8.346;2023-03-01T06:08:12;101477.34;;;3.50;53.36
19811;BME280;10065;49.632;8.346;2023-03-01T06:10:40;101476.31;;;3.52;53.46
19811;BME280;10065;49.632;8.346;2023-03-01T06:13:08;101472.56;;;3.58;53.24
19811;BME280;10065;49.632;8.346;2023-03-01T06:15:36;101470.88;;;3.57;53.21
19811;BME280;10065;49.632;8.346;2023-03-01T06:18:04;101476.44;;;3.51;53.55
19811;BME280;10065;49.632;8.346;2023-03-01T06:20:33;101476.19;;;3.55;53.46
19811;BME280;10065;49.632;8.346;2023-03-01T06:23:01;101473.34;;;3.60;53.55
19811;BME280;10065;49.632;8.346;2023-03-01T06:25:29;101472.25;;;3.64;53.48
19811;BME280;10065;49.632;8.346;2023-03-01T06:27:57;101470.31;;;3.67;53.26
19811;BME280;10065;49.632;8.346;2023-03-01T06:30:26;101465.00;;;3.69;53.20
19811;BME280;10065;49.632;8.346;2023-03-01T06:32:53;101470.97;;;3.71;52.97
19811;BME280;10065;49.632;8.346;2023-03-01T06:35:30;101473.00;;;3.66;53.03
19811;BME280;10065;49.632;8.346;2023-03-01T06:38:00;101471.31;;;3.65;53.14
19811;BME280;10065;49.632;8.346;2023-03-01T06:40:29;101467.91;;;3.63;53.26
19811;BME280;10065;49.632;8.346;2023-03-01T06:42:58;101469.88;;;3.59;53.45
19811;BME280;10065;49.632;8.346;2023-03-01T06:45:25;101466.91;;;3.65;53.42
19811;BME280;10065;49.632;8.346;2023-03-01T06:48:01;101462.19;;;3.72;53.06
19811;BME280;10065;49.632;8.346;2023-03-01T06:50:30;101459.25;;;3.78;52.96
19811;BME280;10065;49.632;8.346;2023-03-01T06:52:59;101464.94;;;3.86;52.61
19811;BME280;10065;49.632;8.346;2023-03-01T06:55:27;101460.38;;;3.90;52.56
19811;BME280;10065;49.632;8.346;2023-03-01T06:57:55;101463.84;;;3.90;52.82
19811;BME280;10065;49.632;8.346;2023-03-01T07:00:24;101456.13;;;3.87;52.50
19811;BME280;10065;49.632;8.346;2023-03-01T07:02:52;101462.16;;;3.89;52.45
19811;BME280;10065;49.632;8.346;2023-03-01T07:05:19;101456.81;;;3.91;52.52
19811;BME280;10065;49.632;8.346;2023-03-01T07:07:47;101457.53;;;3.94;52.41
19811;BME280;10065;49.632;8.346;2023-03-01T07:10:17;101458.88;;;4.01;51.98
19811;BME280;10065;49.632;8.346;2023-03-01T07:12:44;101455.34;;;4.02;52.17
19811;BME280;10065;49.632;8.346;2023-03-01T07:15:12;101449.41;;;4.14;51.80
19811;BME280;10065;49.632;8.346;2023-03-01T07:17:41;101450.00;;;4.20;51.83
19811;BME280;10065;49.632;8.346;2023-03-01T07:20:11;101443.66;;;4.24;51.48
19811;BME280;10065;49.632;8.346;2023-03-01T07:22:40;101449.00;;;4.22;51.40
19811;BME280;10065;49.632;8.346;2023-03-01T07:25:08;101451.63;;;4.22;51.47
19811;BME280;10065;49.632;8.346;2023-03-01T07:27:37;101454.25;;;4.22;51.20
19811;BME280;10065;49.632;8.346;2023-03-01T07:30:06;101445.84;;;4.15;51.38
19811;BME280;10065;49.632;8.346;2023-03-01T07:32:34;101442.78;;;4.07;51.63
19811;BME280;10065;49.632;8.346;2023-03-01T07:35:03;101446.34;;;4.06;51.94
19811;BME280;10065;49.632;8.346;2023-03-01T07:37:30;101444.06;;;4.00;51.94
19811;BME280;10065;49.632;8.346;2023-03-01T07:39:58;101437.03;;;4.01;52.09
19811;BME280;10065;49.632;8.346;2023-03-01T07:42:26;101436.53;;;3.94;52.12
19811;BME280;10065;49.632;8.346;2023-03-01T07:44:55;101446.84;;;3.97;52.14
19811;BME280;10065;49.632;8.346;2023-03-01T07:47:22;101440.38;;;3.87;52.22
19811;BME280;10065;49.632;8.346;2023-03-01T07:49:50;101436.34;;;3.97;52.21
19811;BME280;10065;49.632;8.346;2023-03-01T07:52:18;101440.84;;;3.95;52.21
19811;BME280;10065;49.632;8.346;2023-03-01T07:54:45;101440.66;;;3.98;52.14
19811;BME280;10065;49.632;8.346;2023-03-01T07:57:13;101437.72;;;4.04;51.91
19811;BME280;10065;49.632;8.346;2023-03-01T07:59:41;101440.09;;;4.09;51.53
19811;BME280;10065;49.632;8.346;2023-03-01T08:02:10;101443.91;;;4.19;51.51
19811;BME280;10065;49.632;8.346;2023-03-01T08:04:38;101433.34;;;4.36;51.15
19811;BME280;10065;49.632;8.346;2023-03-01T08:07:06;101426.72;;;4.45;51.06
19811;BME280;10065;49.632;8.346;2023-03-01T08:09:34;101432.88;;;4.60;50.87
19811;BME280;10065;49.632;8.346;2023-03-01T08:12:02;101433.22;;;4.69;50.55
19811;BME280;10065;49.632;8.346;2023-03-01T08:14:31;101426.22;;;4.84;49.97
19811;BME280;10065;49.632;8.346;2023-03-01T08:16:59;101432.72;;;4.92;49.74
19811;BME280;10065;49.632;8.346;2023-03-01T08:19:28;101421.03;;;4.98;49.38
19811;BME280;10065;49.632;8.346;2023-03-01T08:21:56;101425.28;;;5.01;49.49
19811;BME280;10065;49.632;8.346;2023-03-01T08:24:26;101410.91;;;5.06;49.04
19811;BME280;10065;49.632;8.346;2023-03-01T08:26:54;101416.84;;;5.10;48.96
19811;BME280;10065;49.632;8.346;2023-03-01T08:29:22;101410.94;;;5.20;48.99
19811;BME280;10065;49.632;8.346;2023-03-01T08:31:51;101416.69;;;5.27;48.60
19811;BME280;10065;49.632;8.346;2023-03-01T08:34:19;101419.13;;;5.30;48.57
19811;BME280;10065;49.632;8.346;2023-03-01T08:36:48;101416.16;;;5.36;48.63
19811;BME280;10065;49.632;8.346;2023-03-01T08:39:17;101412.56;;;5.37;48.22
19811;BME280;10065;49.632;8.346;2023-03-01T08:41:45;101419.50;;;5.38;47.98
19811;BME280;10065;49.632;8.346;2023-03-01T08:44:14;101416.41;;;5.46;47.75
19811;BME280;10065;49.632;8.346;2023-03-01T08:46:43;101422.25;;;5.65;47.33
19811;BME280;10065;49.632;8.346;2023-03-01T08:49:18;101404.13;;;5.75;46.96
19811;BME280;10065;49.632;8.346;2023-03-01T08:51:48;101402.34;;;6.03;46.93
19811;BME280;10065;49.632;8.346;2023-03-01T08:54:18;101387.38;;;6.45;46.06
19811;BME280;10065;49.632;8.346;2023-03-01T08:56:47;101387.50;;;6.83;45.29
19811;BME280;10065;49.632;8.346;2023-03-01T08:59:16;101392.41;;;7.14;44.40
19811;BME280;10065;49.632;8.346;2023-03-01T09:01:44;101385.66;;;7.61;43.95
19811;BME280;10065;49.632;8.346;2023-03-01T09:04:14;101385.50;;;8.37;42.75
19811;BME280;10065;49.632;8.346;2023-03-01T09:06:42;101377.00;;;9.72;40.12
19811;BME280;10065;49.632;8.346;2023-03-01T09:09:14;101367.44;;;11.51;36.77
19811;BME280;10065;49.632;8.346;2023-03-01T09:11:43;101366.75;;;12.87;34.26
19811;BME280;10065;49.632;8.346;2023-03-01T09:14:16;101363.72;;;14.57;31.58
19811;BME280;10065;49.632;8.346;2023-03-01T09:16:44;101374.06;;;15.99;29.54
19811;BME280;10065;49.632;8.346;2023-03-01T09:19:13;101363.06;;;17.01;27.63
19811;BME280;10065;49.632;8.346;2023-03-01T09:21:41;101360.31;;;19.04;25.81
19811;BME280;10065;49.632;8.346;2023-03-01T09:24:21;101362.09;;;20.15;24.04
19811;BME280;10065;49.632;8.346;2023-03-01T09:26:50;101359.81;;;19.97;24.07
19811;BME280;10065;49.632;8.346;2023-03-01T09:29:20;101347.91;;;20.06;23.73
19811;BME280;10065;49.632;8.346;2023-03-01T09:31:48;101355.75;;;19.57;24.24
19811;BME280;10065;49.632;8.346;2023-03-01T09:34:16;101350.91;;;18.32;25.48
19811;BME280;10065;49.632;8.346;2023-03-01T09:36:49;101352.88;;;17.68;26.08
19811;BME280;10065;49.632;8.346;2023-03-01T09:39:19;101361.47;;;17.47;26.72
19811;BME280;10065;49.632;8.346;2023-03-01T09:41:51;101346.13;;;17.01;27.36
19811;BME280;10065;49.632;8.346;2023-03-01T09:44:29;101343.78;;;16.65;27.86
19811;BME280;10065;49.632;8.346;2023-03-01T09:46:59;101353.75;;;16.39;28.20
19811;BME280;10065;49.632;8.346;2023-03-01T09:49:28;101350.06;;;16.24;28.30
19811;BME280;10065;49.632;8.346;2023-03-01T09:52:00;101346.16;;;16.92;27.27
19811;BME280;10065;49.632;8.346;2023-03-01T09:54:32;101340.66;;;17.74;26.67
19811;BME280;10065;49.632;8.346;2023-03-01T09:57:14;101343.22;;;17.98;25.68
19811;BME280;10065;49.632;8.346;2023-03-01T10:00:02;101331.72;;;18.43;25.70
19811;BME280;10065;49.632;8.346;2023-03-01T10:02:39;101339.03;;;19.32;24.41
19811;BME280;10065;49.632;8.346;2023-03-01T10:05:19;101338.63;;;19.06;24.76
19811;BME280;10065;49.632;8.346;2023-03-01T10:07:56;101325.72;;;19.01;25.05
19811;BME280;10065;49.632;8.346;2023-03-01T10:10:34;101325.56;;;19.17;24.25
19811;BME280;10065;49.632;8.346;2023-03-01T10:13:10;101320.94;;;20.36;23.56
19811;BME280;10065;49.632;8.346;2023-03-01T10:15:44;101307.44;;;22.09;21.58
19811;BME280;10065;49.632;8.346;2023-03-01T10:18:18;101311.31;;;21.94;21.53
19811;BME280;10065;49.632;8.346;2023-03-01T10:20:53;101302.75;;;21.43;21.68
19811;BME280;10065;49.632;8.346;2023-03-01T10:23:23;101302.41;;;21.18;22.28
19811;BME280;10065;49.632;8.346;2023-03-01T10:26:04;101298.72;;;20.76;22.12
19811;BME280;10065;49.632;8.346;2023-03-01T10:28:41;101297.13;;;21.78;21.67
19811;BME280;10065;49.632;8.346;2023-03-01T10:31:13;101291.34;;;23.02;20.79
19811;BME280;10065;49.632;8.346;2023-03-01T10:33:42;101286.78;;;23.80;20.08
19811;BME280;10065;49.632;8.346;2023-03-01T10:36:10;101288.94;;;24.09;19.76
19811;BME280;10065;49.632;8.346;2023-03-01T10:38:48;101287.69;;;24.43;18.85
19811;BME280;10065;49.632;8.346;2023-03-01T10:41:21;101290.09;;;25.07;18.26
19811;BME280;10065;49.632;8.346;2023-03-01T10:43:52;101281.88;;;24.96;18.65
19811;BME280;10065;49.632;8.346;2023-03-01T10:46:26;101265.72;;;26.75;17.11
19811;BME280;10065;49.632;8.346;2023-03-01T10:49:12;101276.34;;;27.47;16.31
19811;BME280;10065;49.632;8.346;2023-03-01T10:51:42;101266.09;;;26.79;17.27
19811;BME280;10065;49.632;8.346;2023-03-01T10:54:20;101257.78;;;26.50;17.00
19811;BME280;10065;49.632;8.346;2023-03-01T10:56:51;101260.81;;;24.42;18.22
19811;BME280;10065;49.632;8.346;2023-03-01T10:59:27;101262.75;;;23.32;19.26
19811;BME280;10065;49.632;8.346;2023-03-01T11:02:09;101254.69;;;23.83;19.56
19811;BME280;10065;49.632;8.346;2023-03-01T11:04:58;101253.69;;;23.00;19.93
19811;BME280;10065;49.632;8.346;2023-03-01T11:07:26;101247.97;;;21.42;21.34
19811;BME280;10065;49.632;8.346;2023-03-01T11:09:55;101232.81;;;19.72;22.62
19811;BME280;10065;49.632;8.346;2023-03-01T11:12:24;101231.31;;;18.29;23.99
19811;BME280;10065;49.632;8.346;2023-03-01T11:14:55;101232.63;;;16.93;25.60
19811;BME280;10065;49.632;8.346;2023-03-01T11:17:27;101225.63;;;16.36;26.48
19811;BME280;10065;49.632;8.346;2023-03-01T11:20:07;101215.22;;;16.81;26.24
19811;BME280;10065;49.632;8.346;2023-03-01T11:22:47;101212.81;;;18.12;24.62
19811;BME280;10065;49.632;8.346;2023-03-01T11:25:15;101200.41;;;19.15;24.09
19811;BME280;10065;49.632;8.346;2023-03-01T11:27:47;101200.31;;;19.52;23.27
19811;BME280;10065;49.632;8.346;2023-03-01T11:30:18;101192.09;;;19.46;23.65
19811;BME280;10065;49.632;8.346;2023-03-01T11:32:53;101185.75;;;19.17;23.59
19811;BME280;10065;49.632;8.346;2023-03-01T11:35:26;101187.72;;;19.24;23.71
19811;BME280;10065;49.632;8.346;2023-03-01T11:38:02;101185.22;;;19.73;23.47
19811;BME280;10065;49.632;8.346;2023-03-01T11:40:35;101192.03;;;19.54;23.10
19811;BME280;10065;49.632;8.346;2023-03-01T11:43:11;101190.00;;;19.56;23.50
19811;BME280;10065;49.632;8.346;2023-03-01T11:45:51;101186.81;;;20.52;22.14
19811;BME280;10065;49.632;8.346;2023-03-01T11:48:37;101175.63;;;21.72;21.19
19811;BME280;10065;49.632;8.346;2023-03-01T11:51:20;101172.78;;;22.85;20.44
19811;BME280;10065;49.632;8.346;2023-03-01T11:53:59;101164.47;;;22.80;19.60
19811;BME280;10065;49.632;8.346;2023-03-01T11:56:34;101158.63;;;22.90;20.19
19811;BME280;10065;49.632;8.346;2023-03-01T11:59:18;101157.03;;;24.03;19.46
19811;BME280;10065;49.632;8.346;2023-03-01T12:02:07;101146.53;;;25.96;17.92
19811;BME280;10065;49.632;8.346;2023-03-01T12:05:04;101143.88;;;26.77;17.56
19811;BME280;10065;49.632;8.346;2023-03-01T12:07:45;101148.25;;;26.20;17.45
19811;BME280;10065;49.632;8.346;2023-03-01T12:10:22;101143.75;;;24.51;17.94
19811;BME280;10065;49.632;8.346;2023-03-01T12:13:03;101144.06;;;23.42;19.34
19811;BME280;10065;49.632;8.346;2023-03-01T12:16:01;101127.91;;;22.45;20.87
19811;BME280;10065;49.632;8.346;2023-03-01T12:21:49;101121.16;;;21.49;21.33
19811;BME280;10065;49.632;8.346;2023-03-01T12:24:32;101113.28;;;20.99;21.70
19811;BME280;10065;49.632;8.346;2023-03-01T12:27:16;101109.75;;;19.60;22.59
19811;BME280;10065;49.632;8.346;2023-03-01T12:29:53;101106.31;;;18.56;23.87
19811;BME280;10065;49.632;8.346;2023-03-01T12:32:38;101088.28;;;18.65;23.54
19811;BME280;10065;49.632;8.346;2023-03-01T12:35:37;101095.16;;;19.97;23.18
19811;BME280;10065;49.632;8.346;2023-03-01T12:38:24;101095.34;;;19.67;22.74
19811;BME280;10065;49.632;8.346;2023-03-01T12:41:11;101088.25;;;18.35;23.77
19811;BME280;10065;49.632;8.346;2023-03-01T12:43:56;101087.16;;;17.16;25.01
19811;BME280;10065;49.632;8.346;2023-03-01T12:46:35;101086.31;;;15.97;26.91
19811;BME280;10065;49.632;8.346;2023-03-01T12:49:13;101080.72;;;17.02;26.38
19811;BME280;10065;49.632;8.346;2023-03-01T12:51:50;101075.19;;;17.57;25.59
19811;BME280;10065;49.632;8.346;2023-03-01T12:54:25;101060.00;;;18.39;24.07
19811;BME280;10065;49.632;8.346;2023-03-01T12:56:55;101060.69;;;19.79;23.11
19811;BME280;10065;49.632;8.346;2023-03-01T12:59:27;101056.50;;;20.32;22.63
19811;BME280;10065;49.632;8.346;2023-03-01T13:02:03;101056.06;;;20.01;22.44
19811;BME280;10065;49.632;8.346;2023-03-01T13:04:51;101046.34;;;20.27;22.42
19811;BME280;10065;49.632;8.346;2023-03-01T13:07:27;101036.38;;;20.28;22.57
19811;BME280;10065;49.632;8.346;2023-03-01T13:10:08;101029.16;;;20.01;23.07
19811;BME280;10065;49.632;8.346;2023-03-01T13:12:50;101026.31;;;19.17;23.45
19811;BME280;10065;49.632;8.346;2023-03-01T13:15:26;101019.56;;;18.56;24.17
19811;BME280;10065;49.632;8.346;2023-03-01T13:17:56;101012.72;;;18.09;24.91
19811;BME280;10065;49.632;8.346;2023-03-01T13:20:29;101006.19;;;17.89;25.46
19811;BME280;10065;49.632;8.346;2023-03-01T13:23:05;101010.81;;;17.57;25.90